首页
METAR-TAF:

METAR-TAF

机场 :

根西岛,

纬度: 49-26N, 经度: 002-36W, 海拔: 102米

当前天气观测

该预报发布于11分钟前的06:50 UTC
风速5节,风向
温度 9°C
湿度 81%
气压 1007 hPa
能见度10公里或以上
少量云层高于2500英尺

METAR: EGJB 200650Z 01005KT 9999 FEW025 09/06 Q1007

时间: 08:01 (07:01 UTC)

预报

该预报发布于2小时和2分钟前的04:59 UTC
预报有效从20日的 06点(UTC)到 20日的 15点(UTC)
风速10节,风向北转东北
能见度10公里或以上
少量云层高于2200英尺

TAF: EGJB 200459Z 2006/2015 02010KT 9999 FEW022

超过4000个机场的气象观测和天气预报(METAR&TAF报告)。

可查询的气象台以黄色和红色小点在地图上表示。

将鼠标移到小点上方,可查看气象台名称。

然后点击查看天气观测和预报。

如需切换地图:点击带黑十字的绿色按钮放大地图;点击带横线的绿色按钮缩小地图;或者点击绿色箭头查看邻近地区的地图。


METAR-TAF: